Radiance Of The Seas — C6SE7 — position and weather

sailwx.info

Track history (hours):
 
Tides and Currents Weather Stations Pressure Air Temp Water Temp Dewpoint Dewpoint Depression Visibility Wind Speed Wind Dir Waves Ship Positions

Radiance Of The Seas

Operator: Royal Caribbean Cruises Ltd

Last reported at 2017-May-26 09:00 UTC. Time now 2017-May-28 12:24 UTC.
Position N 59°42' W 148°18'.

Type: Passenger vessel. MMSI: 311319000.

Wind from 230 at 30 knots

Barometer 1020.0 mb
Air temperature 6.0 ° C
Visibility: greater than 5.4 NM
Water temperature 8.0 ° C

Date/timePositionNaut miles runAvg speedWind from/ knotsBaromVisibWave heightAir tempDewpointWater temp
2017-May-26 09:00N 59°42' W 148°18'38612.2 230 / 301020.0 5.4 6.0 8.0
2017-May-25 01:20N 58°20' W 136°05'513.5
2017-May-25 01:00N 58°19' W 135°56'36 2.1
2017-May-24 08:00N 58°18' W 134°48'26 0.5 220 / 141017.010.8 9.0 9.0
2017-May-22 09:00N 58°42' W 135°06'35 1.7 170 / 351014.027.0 10.0 9.0
2017-May-21 13:00N 58°18' W 135°54'5110.1 100 / 181009.0 0.3 9.0 9.0 8.0
2017-May-21 08:00N 57°30' W 136°24'1919.1 150 / 301011.0 5.4 8.0 9.0
2017-May-21 07:00N 57°12' W 136°12'102 5.4 150 / 251011.0 9.0 9.5
2017-May-20 12:00N 56°00' W 134°00'286 8.3 150 / 111021.0 5.4 8.0 7.0
2017-May-19 01:19N 52°02' W 129°29'716.2
2017-May-19 00:53N 51°57' W 129°22'616.4
2017-May-19 00:30N 51°52' W 129°15'816.2
2017-May-19 00:01N 51°46' W 129°06'816.0
2017-May-18 23:31N 51°40' W 128°58'816.2
2017-May-18 23:01N 51°34' W 128°49'816.0
2017-May-18 22:31N 51°28' W 128°41'816.0
2017-May-18 22:00N 51°22' W 128°32'816.0
2017-May-18 21:31N 51°16' W 128°23'815.8
2017-May-18 21:01N 51°11' W 128°14'815.8
2017-May-18 20:30N 51°06' W 128°04'815.7
2017-May-18 20:00N 51°01' W 127°54'713.9
2017-May-18 19:30N 50°57' W 127°45'9615.5
2017-May-18 13:18N 50°19' W 125°25'616.2
2017-May-18 12:57N 50°14' W 125°23'614.0
2017-May-18 12:30N 50°08' W 125°21'612.7
2017-May-18 12:00N 50°03' W 125°14'611.4
2017-May-18 11:30N 49°58' W 125°10'510.3
2017-May-18 11:00N 49°54' W 125°04'5 9.8
2017-May-18 10:30N 49°51' W 124°59'5 9.8
2017-May-18 10:00N 49°48' W 124°54'510.1
2017-May-18 09:30N 49°44' W 124°48'510.4
2017-May-18 09:00N 49°40' W 124°42'510.1
2017-May-18 08:30N 49°37' W 124°37'510.1
2017-May-18 08:00N 49°33' W 124°31'510.4
2017-May-18 07:30N 49°30' W 124°25'20 9.5
2017-May-18 05:23N 49°22' W 123°57'4 9.5
2017-May-18 05:00N 49°21' W 123°52'510.5
2017-May-18 04:30N 49°20' W 123°44'611.4
2017-May-18 04:00N 49°19' W 123°35'612.7
2017-May-18 03:30N 49°18' W 123°26'714.3
2017-May-18 03:00N 49°19' W 123°15'510.4
2017-May-18 02:30N 49°18' W 123°07'1 1.8
2017-May-18 01:56N 49°17' W 123°07'0 0.0
2017-May-18 01:29N 49°17' W 123°07'0 0.0
2017-May-18 00:59N 49°17' W 123°07'0 0.0
2017-May-18 00:26N 49°17' W 123°07'0 0.0
2017-May-17 23:56N 49°17' W 123°07'0 0.0
2017-May-17 23:26N 49°17' W 123°07'0 0.0
2017-May-17 22:59N 49°17' W 123°07'0 0.0
2017-May-17 22:29N 49°17' W 123°07'0 0.0
2017-May-17 21:59N 49°17' W 123°07'0 0.0
2017-May-17 21:26N 49°17' W 123°07'0 0.0
2017-May-17 20:56N 49°17' W 123°07'0 0.0
2017-May-17 20:29N 49°17' W 123°07'0 0.0
2017-May-17 19:56N 49°17' W 123°07'0 0.0
2017-May-17 19:29N 49°17' W 123°07'0 0.0
2017-May-17 18:56N 49°17' W 123°07'0 0.0
2017-May-17 18:20N 49°17' W 123°07'0 0.0
2017-May-17 17:59N 49°17' W 123°07'0 0.0
2017-May-17 17:29N 49°17' W 123°07'0 0.0
2017-May-17 16:59N 49°17' W 123°07'0 0.0
2017-May-17 16:14N 49°17' W 123°07'0 0.0
2017-May-17 15:56N 49°17' W 123°07'0 0.0
2017-May-17 15:29N 49°17' W 123°07'0 0.0
2017-May-17 14:56N 49°17' W 123°07'0 0.0
2017-May-17 14:26N 49°17' W 123°07'1 1.0
2017-May-17 13:30N 49°18' W 123°07'613.2
2017-May-17 13:01N 49°18' W 123°17'815.7
2017-May-17 12:31N 49°10' W 123°20'714.5
2017-May-17 12:01N 49°03' W 123°19'714.9
2017-May-17 11:31N 48°58' W 123°11'815.1
2017-May-17 11:00N 48°53' W 123°03'713.8
2017-May-17 10:31N 48°46' W 123°02'815.1
2017-May-17 10:01N 48°43' W 123°12'511.0
2017-May-17 09:30N 48°37' W 123°14'815.1
2017-May-17 09:00N 48°30' W 123°10'713.6
2017-May-17 08:31N 48°23' W 123°13'713.5
2017-May-17 08:00N 48°22' W 123°23'816.5
2017-May-17 07:30N 48°14' W 123°28'1019.1
2017-May-17 07:00N 48°13' W 123°43'918.8
2017-May-17 06:30N 48°14' W 123°57'1019.7
2017-May-17 06:01N 48°18' W 124°10'1019.5
2017-May-17 05:31N 48°22' W 124°23'1019.8
2017-May-17 05:01N 48°26' W 124°37'918.6
2017-May-17 04:31N 48°29' W 124°50'1019.0
2017-May-17 03:59N 48°29' W 125°05'1118.3
2017-May-17 03:25N 48°27' W 125°21'1017.7
2017-May-17 02:51N 48°21' W 125°33'  
Track history (hours):
 
Tides and Currents Weather Stations Pressure Air Temp Water Temp Dewpoint Dewpoint Depression Visibility Wind Speed Wind Dir Waves Ship Positions

Radiance Of The Seas

Operator: Royal Caribbean Cruises Ltd

Last reported at 2017-May-26 09:00 UTC. Time now 2017-May-28 12:24 UTC.
Position N 59°42' W 148°18'.

Type: Passenger vessel. MMSI: 311319000.

Wind from 230 at 30 knots

Barometer 1020.0 mb
Air temperature 6.0 ° C
Visibility: greater than 5.4 NM
Water temperature 8.0 ° C

Date/timePositionNaut miles runAvg speedWind from/ knotsBaromVisibWave heightAir tempDewpointWater temp
2017-May-26 09:00N 59°42' W 148°18'38612.2 230 / 301020.0 5.4 6.0 8.0
2017-May-25 01:20N 58°20' W 136°05'513.5
2017-May-25 01:00N 58°19' W 135°56'36 2.1
2017-May-24 08:00N 58°18' W 134°48'26 0.5 220 / 141017.010.8 9.0 9.0
2017-May-22 09:00N 58°42' W 135°06'35 1.7 170 / 351014.027.0 10.0 9.0
2017-May-21 13:00N 58°18' W 135°54'5110.1 100 / 181009.0 0.3 9.0 9.0 8.0
2017-May-21 08:00N 57°30' W 136°24'1919.1 150 / 301011.0 5.4 8.0 9.0
2017-May-21 07:00N 57°12' W 136°12'102 5.4 150 / 251011.0 9.0 9.5
2017-May-20 12:00N 56°00' W 134°00'286 8.3 150 / 111021.0 5.4 8.0 7.0
2017-May-19 01:19N 52°02' W 129°29'716.2
2017-May-19 00:53N 51°57' W 129°22'616.4
2017-May-19 00:30N 51°52' W 129°15'816.2
2017-May-19 00:01N 51°46' W 129°06'816.0
2017-May-18 23:31N 51°40' W 128°58'816.2
2017-May-18 23:01N 51°34' W 128°49'816.0
2017-May-18 22:31N 51°28' W 128°41'816.0
2017-May-18 22:00N 51°22' W 128°32'816.0
2017-May-18 21:31N 51°16' W 128°23'815.8
2017-May-18 21:01N 51°11' W 128°14'815.8
2017-May-18 20:30N 51°06' W 128°04'815.7
2017-May-18 20:00N 51°01' W 127°54'713.9
2017-May-18 19:30N 50°57' W 127°45'9615.5
2017-May-18 13:18N 50°19' W 125°25'616.2
2017-May-18 12:57N 50°14' W 125°23'614.0
2017-May-18 12:30N 50°08' W 125°21'612.7
2017-May-18 12:00N 50°03' W 125°14'611.4
2017-May-18 11:30N 49°58' W 125°10'510.3
2017-May-18 11:00N 49°54' W 125°04'5 9.8
2017-May-18 10:30N 49°51' W 124°59'5 9.8
2017-May-18 10:00N 49°48' W 124°54'510.1
2017-May-18 09:30N 49°44' W 124°48'510.4
2017-May-18 09:00N 49°40' W 124°42'510.1
2017-May-18 08:30N 49°37' W 124°37'510.1
2017-May-18 08:00N 49°33' W 124°31'510.4
2017-May-18 07:30N 49°30' W 124°25'20 9.5
2017-May-18 05:23N 49°22' W 123°57'4 9.5
2017-May-18 05:00N 49°21' W 123°52'510.5
2017-May-18 04:30N 49°20' W 123°44'611.4
2017-May-18 04:00N 49°19' W 123°35'612.7
2017-May-18 03:30N 49°18' W 123°26'714.3
2017-May-18 03:00N 49°19' W 123°15'510.4
2017-May-18 02:30N 49°18' W 123°07'1 1.8
2017-May-18 01:56N 49°17' W 123°07'0 0.0
2017-May-18 01:29N 49°17' W 123°07'0 0.0
2017-May-18 00:59N 49°17' W 123°07'0 0.0
2017-May-18 00:26N 49°17' W 123°07'0 0.0
2017-May-17 23:56N 49°17' W 123°07'0 0.0
2017-May-17 23:26N 49°17' W 123°07'0 0.0
2017-May-17 22:59N 49°17' W 123°07'0 0.0
2017-May-17 22:29N 49°17' W 123°07'0 0.0
2017-May-17 21:59N 49°17' W 123°07'0 0.0
2017-May-17 21:26N 49°17' W 123°07'0 0.0
2017-May-17 20:56N 49°17' W 123°07'0 0.0
2017-May-17 20:29N 49°17' W 123°07'0 0.0
2017-May-17 19:56N 49°17' W 123°07'0 0.0
2017-May-17 19:29N 49°17' W 123°07'0 0.0
2017-May-17 18:56N 49°17' W 123°07'0 0.0
2017-May-17 18:20N 49°17' W 123°07'0 0.0
2017-May-17 17:59N 49°17' W 123°07'0 0.0
2017-May-17 17:29N 49°17' W 123°07'0 0.0
2017-May-17 16:59N 49°17' W 123°07'0 0.0
2017-May-17 16:14N 49°17' W 123°07'0 0.0
2017-May-17 15:56N 49°17' W 123°07'0 0.0
2017-May-17 15:29N 49°17' W 123°07'0 0.0
2017-May-17 14:56N 49°17' W 123°07'0 0.0
2017-May-17 14:26N 49°17' W 123°07'1 1.0
2017-May-17 13:30N 49°18' W 123°07'613.2
2017-May-17 13:01N 49°18' W 123°17'815.7
2017-May-17 12:31N 49°10' W 123°20'714.5
2017-May-17 12:01N 49°03' W 123°19'714.9
2017-May-17 11:31N 48°58' W 123°11'815.1
2017-May-17 11:00N 48°53' W 123°03'713.8
2017-May-17 10:31N 48°46' W 123°02'815.1
2017-May-17 10:01N 48°43' W 123°12'511.0
2017-May-17 09:30N 48°37' W 123°14'815.1
2017-May-17 09:00N 48°30' W 123°10'713.6
2017-May-17 08:31N 48°23' W 123°13'713.5
2017-May-17 08:00N 48°22' W 123°23'816.5
2017-May-17 07:30N 48°14' W 123°28'1019.1
2017-May-17 07:00N 48°13' W 123°43'918.8
2017-May-17 06:30N 48°14' W 123°57'1019.7
2017-May-17 06:01N 48°18' W 124°10'1019.5
2017-May-17 05:31N 48°22' W 124°23'1019.8
2017-May-17 05:01N 48°26' W 124°37'918.6
2017-May-17 04:31N 48°29' W 124°50'1019.0
2017-May-17 03:59N 48°29' W 125°05'1118.3
2017-May-17 03:25N 48°27' W 125°21'1017.7
2017-May-17 02:51N 48°21' W 125°33'  

Dump ship's entire track history